createdAt,value
2023-10-31T00:00:17.371Z,707.00
2023-10-31T00:00:47.507Z,706.00
2023-10-31T00:01:17.484Z,706.00
2023-10-31T00:01:47.546Z,707.00
2023-10-31T00:02:17.553Z,707.00
2023-10-31T00:02:47.709Z,707.00
2023-10-31T00:03:17.713Z,707.00
2023-10-31T00:03:47.810Z,708.00
2023-10-31T00:04:17.850Z,709.00
2023-10-31T00:04:47.926Z,709.00
2023-10-31T00:05:20.678Z,710.00
2023-10-31T00:05:47.976Z,709.00
2023-10-31T00:06:17.970Z,707.00
2023-10-31T00:06:48.087Z,707.00
2023-10-31T00:07:18.122Z,706.00
2023-10-31T00:07:48.184Z,708.00
2023-10-31T00:08:18.182Z,708.00
2023-10-31T00:08:48.166Z,706.00
2023-10-31T00:09:48.246Z,705.00
2023-10-31T00:10:18.249Z,706.00
2023-10-31T00:11:18.325Z,706.00
2023-10-31T00:11:48.443Z,705.00
2023-10-31T00:12:18.456Z,705.00
2023-10-31T00:12:48.443Z,705.00
2023-10-31T00:13:18.567Z,706.00
2023-10-31T00:13:48.599Z,707.00
2023-10-31T00:14:29.787Z,705.00
2023-10-31T00:14:48.616Z,706.00
2023-10-31T00:15:18.697Z,706.00
2023-10-31T00:15:48.766Z,704.00
2023-10-31T00:16:18.788Z,703.00
2023-10-31T00:16:48.870Z,702.00
2023-10-31T00:17:18.918Z,704.00
2023-10-31T00:17:48.997Z,704.00
2023-10-31T00:18:19.008Z,704.00
2023-10-31T00:18:49.032Z,704.00
2023-10-31T00:19:19.061Z,702.00
2023-10-31T00:19:49.149Z,700.00
2023-10-31T00:20:19.188Z,699.00
2023-10-31T00:20:49.203Z,697.00
2023-10-31T00:21:20.533Z,696.00
2023-10-31T00:21:49.340Z,697.00
2023-10-31T00:22:19.384Z,695.00
2023-10-31T00:22:49.447Z,695.00
2023-10-31T00:23:19.480Z,698.00
2023-10-31T00:23:49.516Z,698.00
2023-10-31T00:24:19.551Z,700.00
2023-10-31T00:24:49.576Z,700.00
2023-10-31T00:25:19.603Z,700.00
2023-10-31T00:25:49.764Z,697.00
2023-10-31T00:26:19.780Z,695.00
2023-10-31T00:26:49.820Z,695.00
2023-10-31T00:27:19.857Z,695.00
2023-10-31T00:27:49.885Z,696.00
2023-10-31T00:28:19.914Z,696.00
2023-10-31T00:28:49.999Z,695.00
2023-10-31T00:29:20.031Z,693.00
2023-10-31T00:29:50.065Z,693.00
2023-10-31T00:30:20.095Z,694.00
2023-10-31T00:30:50.140Z,694.00
2023-10-31T00:31:20.166Z,693.00
2023-10-31T00:31:50.231Z,691.00
2023-10-31T00:32:20.253Z,692.00
2023-10-31T00:32:50.332Z,694.00
2023-10-31T00:33:20.327Z,695.00
2023-10-31T00:33:50.383Z,698.00
2023-10-31T00:34:20.449Z,698.00
2023-10-31T00:34:50.541Z,697.00
2023-10-31T00:35:20.594Z,698.00
2023-10-31T00:35:50.921Z,699.00
2023-10-31T00:36:20.667Z,698.00
2023-10-31T00:37:20.700Z,696.00
2023-10-31T00:37:50.756Z,696.00
2023-10-31T00:38:20.780Z,697.00
2023-10-31T00:38:50.809Z,697.00
2023-10-31T00:39:20.842Z,696.00
2023-10-31T00:39:50.881Z,698.00
2023-10-31T00:40:20.923Z,698.00
2023-10-31T00:40:50.966Z,698.00
2023-10-31T00:41:21.006Z,699.00
2023-10-31T00:41:51.308Z,700.00
2023-10-31T00:42:21.101Z,699.00
2023-10-31T00:43:21.185Z,699.00
2023-10-31T00:43:51.253Z,698.00
2023-10-31T00:44:21.303Z,699.00
2023-10-31T00:44:51.368Z,697.00
2023-10-31T00:45:21.390Z,698.00
2023-10-31T00:45:51.443Z,698.00
2023-10-31T00:46:21.461Z,697.00
2023-10-31T00:46:51.498Z,694.00
2023-10-31T00:47:21.563Z,694.00
2023-10-31T00:47:51.637Z,693.00
2023-10-31T00:48:21.729Z,692.00
2023-10-31T00:48:51.782Z,690.00
2023-10-31T00:49:21.794Z,691.00
2023-10-31T00:49:51.882Z,690.00
2023-10-31T00:50:21.907Z,690.00
2023-10-31T00:50:51.932Z,690.00
2023-10-31T00:51:22.000Z,690.00
2023-10-31T00:51:52.003Z,688.00
2023-10-31T00:52:22.029Z,690.00
2023-10-31T00:52:52.117Z,691.00
2023-10-31T00:53:22.149Z,691.00
2023-10-31T00:53:52.182Z,691.00
2023-10-31T00:54:22.219Z,691.00
2023-10-31T00:54:52.256Z,691.00
2023-10-31T00:55:22.283Z,691.00
2023-10-31T00:55:52.365Z,689.00
2023-10-31T00:56:22.390Z,689.00
2023-10-31T00:56:52.430Z,689.00
2023-10-31T00:57:22.449Z,689.00
2023-10-31T00:57:52.485Z,688.00
2023-10-31T00:58:22.521Z,689.00
2023-10-31T00:58:52.622Z,690.00
2023-10-31T00:59:22.668Z,688.00
2023-10-31T00:59:52.697Z,687.00
2023-10-31T01:00:22.724Z,688.00
2023-10-31T01:00:52.781Z,687.00
2023-10-31T01:01:22.872Z,687.00
2023-10-31T01:01:52.922Z,686.00
2023-10-31T01:02:23.009Z,689.00
2023-10-31T01:02:53.103Z,690.00
2023-10-31T01:03:23.144Z,692.00
2023-10-31T01:03:53.097Z,691.00
2023-10-31T01:04:23.191Z,690.00
2023-10-31T01:04:53.256Z,690.00
2023-10-31T01:05:23.292Z,688.00
2023-10-31T01:05:53.303Z,689.00
2023-10-31T01:06:23.423Z,688.00
2023-10-31T01:06:53.439Z,689.00
2023-10-31T01:07:53.520Z,690.00
2023-10-31T01:08:23.513Z,689.00
2023-10-31T01:09:23.583Z,685.00
2023-10-31T01:09:53.704Z,682.00
2023-10-31T01:10:23.705Z,679.00
2023-10-31T01:11:23.771Z,678.00
2023-10-31T01:11:53.763Z,678.00
2023-10-31T01:12:23.763Z,679.00
2023-10-31T01:12:53.894Z,679.00
2023-10-31T01:13:23.906Z,680.00
2023-10-31T01:13:54.019Z,680.00
2023-10-31T01:14:24.124Z,680.00
2023-10-31T01:14:54.245Z,679.00
2023-10-31T01:15:24.240Z,679.00
2023-10-31T01:15:54.281Z,680.00
2023-10-31T01:16:24.356Z,680.00
2023-10-31T01:16:54.446Z,681.00
2023-10-31T01:17:24.473Z,681.00
2023-10-31T01:17:54.539Z,681.00
2023-10-31T01:18:24.567Z,680.00
2023-10-31T01:18:54.598Z,680.00
2023-10-31T01:19:24.623Z,679.00
2023-10-31T01:19:54.680Z,679.00
2023-10-31T01:20:24.698Z,680.00
2023-10-31T01:20:54.733Z,679.00
2023-10-31T01:21:24.756Z,678.00
2023-10-31T01:21:54.845Z,676.00
2023-10-31T01:22:24.893Z,675.00
2023-10-31T01:22:54.920Z,674.00
2023-10-31T01:23:24.970Z,675.00
2023-10-31T01:23:54.988Z,673.00
2023-10-31T01:24:25.018Z,671.00
2023-10-31T01:24:55.100Z,671.00
2023-10-31T01:25:25.148Z,671.00
2023-10-31T01:25:55.282Z,668.00
2023-10-31T01:26:25.185Z,668.00
2023-10-31T01:26:55.221Z,670.00
2023-10-31T01:27:25.264Z,671.00
2023-10-31T01:27:55.284Z,669.00
2023-10-31T01:28:25.315Z,668.00
2023-10-31T01:28:55.378Z,667.00
2023-10-31T01:29:25.412Z,667.00
2023-10-31T01:29:55.445Z,668.00
2023-10-31T01:30:25.485Z,667.00
2023-10-31T01:30:55.535Z,666.00
2023-10-31T01:31:25.582Z,669.00
2023-10-31T01:31:59.791Z,671.00
2023-10-31T01:32:25.847Z,672.00
2023-10-31T01:32:55.785Z,671.00
2023-10-31T01:33:25.821Z,671.00
2023-10-31T01:33:55.943Z,669.00
2023-10-31T01:34:25.766Z,669.00
2023-10-31T01:34:55.875Z,672.00
2023-10-31T01:35:25.881Z,671.00
2023-10-31T01:35:55.916Z,670.00
2023-10-31T01:36:25.950Z,671.00
2023-10-31T01:36:55.984Z,673.00
2023-10-31T01:37:26.010Z,673.00
2023-10-31T01:37:56.105Z,674.00
2023-10-31T01:38:26.120Z,671.00
2023-10-31T01:38:56.149Z,670.00
2023-10-31T01:39:26.178Z,669.00
2023-10-31T01:39:56.217Z,668.00
2023-10-31T01:40:26.257Z,668.00
2023-10-31T01:40:56.303Z,669.00
2023-10-31T01:41:26.331Z,670.00
2023-10-31T01:41:56.360Z,670.00
2023-10-31T01:42:26.406Z,668.00
2023-10-31T01:42:56.434Z,667.00
2023-10-31T01:43:26.467Z,668.00
2023-10-31T01:43:56.521Z,666.00
2023-10-31T01:44:26.551Z,665.00
2023-10-31T01:44:56.594Z,668.00
2023-10-31T01:45:26.635Z,668.00
2023-10-31T01:45:56.709Z,669.00
2023-10-31T01:46:26.719Z,671.00
2023-10-31T01:46:56.775Z,672.00
2023-10-31T01:47:26.837Z,672.00
2023-10-31T01:47:56.878Z,673.00
2023-10-31T01:48:26.921Z,673.00
2023-10-31T01:48:56.951Z,673.00
2023-10-31T01:49:26.984Z,674.00
2023-10-31T01:49:57.064Z,675.00
2023-10-31T01:50:27.095Z,675.00
2023-10-31T01:50:57.122Z,673.00
2023-10-31T01:51:27.153Z,673.00
2023-10-31T01:51:57.183Z,672.00
2023-10-31T01:52:27.224Z,672.00
2023-10-31T01:52:57.290Z,674.00
2023-10-31T01:53:27.362Z,674.00
2023-10-31T01:53:57.372Z,674.00
2023-10-31T01:54:27.407Z,672.00
2023-10-31T01:54:57.444Z,672.00
2023-10-31T01:55:27.473Z,671.00
2023-10-31T01:55:57.553Z,671.00
2023-10-31T01:56:27.601Z,671.00
2023-10-31T01:56:57.619Z,670.00
2023-10-31T01:57:27.685Z,668.00
2023-10-31T01:57:57.717Z,668.00
2023-10-31T01:58:27.748Z,668.00
2023-10-31T01:58:57.804Z,667.00
2023-10-31T01:59:27.813Z,668.00
2023-10-31T01:59:57.840Z,668.00
2023-10-31T02:00:27.874Z,667.00
2023-10-31T02:00:57.905Z,669.00
2023-10-31T02:01:27.969Z,666.00
2023-10-31T02:01:58.071Z,667.00
2023-10-31T02:02:28.073Z,667.00
2023-10-31T02:03:28.155Z,666.00
2023-10-31T02:03:58.096Z,667.00
2023-10-31T02:04:28.130Z,668.00
2023-10-31T02:04:58.177Z,667.00
2023-10-31T02:05:28.261Z,667.00
2023-10-31T02:05:58.284Z,665.00
2023-10-31T02:06:28.384Z,662.00
2023-10-31T02:06:58.379Z,663.00
2023-10-31T02:07:58.480Z,664.00
2023-10-31T02:08:28.492Z,665.00
2023-10-31T02:08:58.500Z,664.00
2023-10-31T02:09:28.615Z,665.00
2023-10-31T02:09:58.602Z,667.00
2023-10-31T02:10:28.724Z,667.00
2023-10-31T02:10:58.744Z,667.00
2023-10-31T02:11:58.810Z,668.00
2023-10-31T02:12:28.796Z,666.00
2023-10-31T02:12:58.807Z,667.00
2023-10-31T02:13:28.807Z,666.00
2023-10-31T02:14:28.885Z,664.00
2023-10-31T02:14:58.999Z,663.00
2023-10-31T02:15:29.006Z,664.00
2023-10-31T02:15:59.054Z,663.00
2023-10-31T02:16:29.099Z,663.00
2023-10-31T02:16:59.176Z,664.00
2023-10-31T02:17:29.207Z,665.00
2023-10-31T02:17:59.300Z,665.00
2023-10-31T02:18:29.335Z,664.00
2023-10-31T02:18:59.348Z,662.00
2023-10-31T02:19:29.387Z,660.00
2023-10-31T02:19:59.461Z,661.00
2023-10-31T02:20:29.505Z,660.00
2023-10-31T02:20:59.546Z,660.00
2023-10-31T02:21:29.578Z,660.00
2023-10-31T02:21:59.603Z,660.00
2023-10-31T02:22:29.652Z,658.00
2023-10-31T02:22:59.768Z,659.00
2023-10-31T02:23:29.798Z,659.00
2023-10-31T02:23:59.830Z,660.00
2023-10-31T02:24:29.882Z,661.00
2023-10-31T02:24:59.888Z,662.00
2023-10-31T02:25:29.916Z,662.00
2023-10-31T02:25:59.985Z,662.00
2023-10-31T02:26:30.018Z,661.00
2023-10-31T02:27:00.109Z,661.00
2023-10-31T02:27:30.327Z,660.00
2023-10-31T02:28:00.228Z,658.00
2023-10-31T02:29:00.411Z,658.00
2023-10-31T02:29:30.455Z,659.00
2023-10-31T02:30:00.535Z,660.00
2023-10-31T02:30:30.660Z,660.00
2023-10-31T02:31:00.702Z,659.00
2023-10-31T02:31:30.832Z,659.00
2023-10-31T02:32:00.829Z,657.00
2023-10-31T02:32:31.028Z,655.00
2023-10-31T02:33:01.003Z,654.00
2023-10-31T02:33:31.039Z,652.00
2023-10-31T02:34:01.075Z,652.00
2023-10-31T02:34:31.106Z,654.00
2023-10-31T02:35:01.156Z,655.00
2023-10-31T02:35:31.243Z,656.00
2023-10-31T02:36:01.363Z,657.00
2023-10-31T02:36:31.434Z,658.00
2023-10-31T02:37:01.502Z,657.00
2023-10-31T02:37:31.500Z,659.00
2023-10-31T02:38:01.583Z,659.00
2023-10-31T02:38:31.604Z,660.00
2023-10-31T02:39:01.632Z,659.00
2023-10-31T02:39:31.665Z,659.00
2023-10-31T02:40:01.723Z,659.00
2023-10-31T02:40:31.748Z,658.00
2023-10-31T02:41:01.818Z,657.00
2023-10-31T02:41:31.837Z,655.00
2023-10-31T02:42:01.908Z,655.00
2023-10-31T02:42:31.924Z,655.00
2023-10-31T02:43:01.959Z,655.00
2023-10-31T02:43:31.994Z,655.00
2023-10-31T02:44:02.086Z,655.00
2023-10-31T02:44:32.113Z,654.00
2023-10-31T02:45:02.148Z,654.00
2023-10-31T02:45:32.188Z,653.00
2023-10-31T02:46:02.277Z,653.00
2023-10-31T02:46:32.318Z,652.00
2023-10-31T02:47:02.392Z,651.00
2023-10-31T02:47:32.429Z,652.00
2023-10-31T02:48:02.501Z,651.00
2023-10-31T02:48:32.567Z,651.00
2023-10-31T02:49:02.599Z,651.00
2023-10-31T02:49:32.641Z,651.00
2023-10-31T02:50:02.729Z,651.00
2023-10-31T02:50:32.814Z,651.00
2023-10-31T02:51:02.857Z,652.00
2023-10-31T02:51:32.883Z,653.00
2023-10-31T02:52:02.917Z,651.00
2023-10-31T02:52:32.966Z,650.00
2023-10-31T02:53:03.016Z,650.00
2023-10-31T02:53:33.024Z,652.00
2023-10-31T02:54:03.056Z,652.00
2023-10-31T02:54:33.094Z,650.00
2023-10-31T02:55:03.136Z,649.00
2023-10-31T02:55:33.199Z,650.00
2023-10-31T02:56:03.257Z,650.00
2023-10-31T02:56:33.300Z,650.00
2023-10-31T02:57:03.334Z,648.00
2023-10-31T02:57:33.367Z,648.00
2023-10-31T02:58:03.410Z,647.00
2023-10-31T02:58:33.431Z,648.00
2023-10-31T02:59:03.489Z,647.00
2023-10-31T02:59:33.541Z,646.00
2023-10-31T03:00:03.591Z,647.00
2023-10-31T03:00:33.618Z,648.00
2023-10-31T03:01:03.648Z,648.00
2023-10-31T03:01:33.680Z,649.00
2023-10-31T03:02:03.753Z,649.00
2023-10-31T03:02:33.862Z,649.00
2023-10-31T03:03:04.107Z,649.00
2023-10-31T03:03:34.058Z,650.00
2023-10-31T03:04:04.033Z,649.00
2023-10-31T03:04:34.059Z,649.00
2023-10-31T03:05:04.113Z,651.00
2023-10-31T03:05:34.167Z,649.00
2023-10-31T03:06:04.168Z,649.00
2023-10-31T03:06:34.178Z,649.00
2023-10-31T03:07:04.285Z,647.00
2023-10-31T03:07:34.282Z,644.00
2023-10-31T03:08:04.417Z,645.00
2023-10-31T03:08:34.421Z,644.00
2023-10-31T03:09:04.431Z,643.00
2023-10-31T03:09:34.430Z,644.00
2023-10-31T03:10:34.493Z,644.00
2023-10-31T03:11:04.540Z,645.00
2023-10-31T03:11:34.538Z,647.00
2023-10-31T03:12:04.536Z,647.00
2023-10-31T03:12:34.647Z,648.00
2023-10-31T03:13:04.764Z,647.00
2023-10-31T03:13:34.777Z,646.00
2023-10-31T03:14:04.785Z,644.00
2023-10-31T03:14:34.895Z,641.00
2023-10-31T03:15:04.915Z,641.00
2023-10-31T03:15:34.891Z,639.00
2023-10-31T03:16:04.928Z,638.00
2023-10-31T03:16:35.056Z,637.00
2023-10-31T03:17:04.992Z,637.00
2023-10-31T03:17:35.075Z,637.00
2023-10-31T03:18:05.109Z,636.00
2023-10-31T03:18:35.183Z,636.00
2023-10-31T03:19:05.213Z,636.00
2023-10-31T03:19:35.250Z,636.00
2023-10-31T03:20:05.334Z,637.00
2023-10-31T03:20:35.353Z,638.00
2023-10-31T03:21:05.389Z,638.00
2023-10-31T03:21:35.420Z,640.00
2023-10-31T03:22:05.450Z,642.00
2023-10-31T03:22:35.490Z,644.00
2023-10-31T03:23:05.530Z,644.00
2023-10-31T03:23:35.566Z,643.00
2023-10-31T03:24:05.603Z,642.00
2023-10-31T03:24:35.636Z,642.00
2023-10-31T03:25:05.665Z,642.00
2023-10-31T03:25:35.694Z,642.00
2023-10-31T03:26:05.736Z,642.00
2023-10-31T03:26:35.811Z,640.00
2023-10-31T03:27:05.825Z,641.00
2023-10-31T03:27:35.867Z,642.00
2023-10-31T03:28:05.930Z,641.00
2023-10-31T03:28:35.962Z,641.00
2023-10-31T03:29:06.049Z,641.00
2023-10-31T03:29:36.073Z,640.00
2023-10-31T03:30:06.119Z,640.00
2023-10-31T03:30:36.169Z,639.00
2023-10-31T03:31:06.197Z,640.00
2023-10-31T03:31:36.250Z,641.00
2023-10-31T03:32:06.338Z,641.00
2023-10-31T03:32:36.418Z,640.00
2023-10-31T03:33:06.456Z,642.00
2023-10-31T03:33:36.479Z,642.00
2023-10-31T03:34:06.537Z,641.00
2023-10-31T03:34:36.575Z,640.00
2023-10-31T03:35:06.643Z,639.00
2023-10-31T03:35:36.682Z,639.00
2023-10-31T03:36:06.710Z,638.00
2023-10-31T03:36:36.759Z,638.00
2023-10-31T03:37:06.806Z,638.00
2023-10-31T03:37:36.836Z,637.00
2023-10-31T03:38:06.925Z,636.00
2023-10-31T03:38:37.122Z,634.00
2023-10-31T03:39:06.989Z,636.00
2023-10-31T03:39:37.024Z,637.00
2023-10-31T03:40:07.055Z,638.00
2023-10-31T03:40:37.100Z,636.00
2023-10-31T03:41:07.114Z,636.00
2023-10-31T03:41:37.212Z,637.00
2023-10-31T03:42:07.210Z,635.00
2023-10-31T03:42:37.237Z,636.00
2023-10-31T03:43:07.281Z,635.00
2023-10-31T03:43:37.312Z,634.00
2023-10-31T03:44:07.363Z,634.00
2023-10-31T03:44:37.392Z,635.00
2023-10-31T03:45:07.445Z,635.00
2023-10-31T03:45:37.473Z,636.00
2023-10-31T03:46:07.509Z,636.00
2023-10-31T03:46:37.603Z,635.00
2023-10-31T03:47:07.753Z,635.00
2023-10-31T03:47:37.639Z,634.00
2023-10-31T03:48:07.672Z,633.00
2023-10-31T03:48:37.700Z,634.00
2023-10-31T03:49:07.733Z,633.00
2023-10-31T03:49:37.774Z,633.00
2023-10-31T03:50:07.839Z,633.00
2023-10-31T03:50:37.916Z,633.00
2023-10-31T03:51:07.952Z,633.00
2023-10-31T03:51:37.984Z,632.00
2023-10-31T03:52:08.013Z,630.00
2023-10-31T03:52:38.041Z,631.00
2023-10-31T03:53:08.115Z,631.00
2023-10-31T03:53:38.150Z,632.00
2023-10-31T03:54:08.186Z,633.00
2023-10-31T03:54:38.228Z,633.00
2023-10-31T03:55:08.249Z,630.00
2023-10-31T03:55:38.313Z,631.00
2023-10-31T03:56:08.375Z,632.00
2023-10-31T03:56:38.425Z,633.00
2023-10-31T03:57:08.479Z,631.00
2023-10-31T03:57:38.492Z,632.00
2023-10-31T03:58:08.526Z,632.00
2023-10-31T03:58:38.676Z,632.00
2023-10-31T03:59:08.667Z,631.00
2023-10-31T03:59:38.692Z,631.00
2023-10-31T04:00:08.720Z,630.00
2023-10-31T04:00:38.775Z,630.00
2023-10-31T04:01:08.843Z,629.00
2023-10-31T04:01:38.928Z,630.00
2023-10-31T04:02:09.016Z,631.00
2023-10-31T04:02:39.088Z,630.00
2023-10-31T04:03:09.151Z,629.00
2023-10-31T04:03:39.254Z,630.00
2023-10-31T04:04:09.303Z,630.00
2023-10-31T04:04:39.441Z,630.00
2023-10-31T04:05:09.434Z,630.00
2023-10-31T04:05:39.492Z,627.00
2023-10-31T04:06:09.477Z,630.00
2023-10-31T04:06:39.597Z,631.00
2023-10-31T04:07:09.712Z,630.00
2023-10-31T04:07:39.862Z,630.00
2023-10-31T04:08:09.854Z,629.00
2023-10-31T04:08:39.840Z,629.00
2023-10-31T04:09:09.841Z,630.00
2023-10-31T04:10:09.920Z,629.00
2023-10-31T04:10:40.076Z,629.00
2023-10-31T04:11:10.096Z,628.00
2023-10-31T04:11:40.075Z,627.00
2023-10-31T04:12:10.072Z,627.00
2023-10-31T04:12:40.093Z,627.00
2023-10-31T04:13:10.183Z,629.00
2023-10-31T04:13:40.191Z,629.00
2023-10-31T04:14:10.265Z,629.00
2023-10-31T04:14:40.254Z,628.00
2023-10-31T04:15:10.374Z,629.00
2023-10-31T04:15:40.369Z,629.00
2023-10-31T04:16:10.423Z,628.00
2023-10-31T04:16:40.529Z,628.00
2023-10-31T04:17:10.552Z,627.00
2023-10-31T04:17:40.636Z,628.00
2023-10-31T04:18:10.802Z,627.00
2023-10-31T04:18:40.728Z,627.00
2023-10-31T04:19:10.752Z,627.00
2023-10-31T04:19:40.838Z,628.00
2023-10-31T04:20:10.898Z,629.00
2023-10-31T04:20:40.940Z,631.00
2023-10-31T04:21:10.963Z,630.00
2023-10-31T04:21:40.994Z,628.00
2023-10-31T04:22:11.017Z,626.00
2023-10-31T04:22:41.097Z,627.00
2023-10-31T04:23:11.160Z,628.00
2023-10-31T04:23:41.193Z,629.00
2023-10-31T04:24:11.217Z,629.00
2023-10-31T04:24:41.244Z,628.00
2023-10-31T04:25:11.277Z,627.00
2023-10-31T04:25:41.338Z,626.00
2023-10-31T04:26:11.436Z,626.00
2023-10-31T04:26:41.479Z,625.00
2023-10-31T04:27:11.504Z,626.00
2023-10-31T04:27:41.558Z,626.00
2023-10-31T04:28:11.533Z,628.00
2023-10-31T04:28:41.608Z,627.00
2023-10-31T04:29:11.682Z,625.00
2023-10-31T04:29:41.701Z,624.00
2023-10-31T04:30:14.882Z,623.00
2023-10-31T04:30:41.724Z,623.00
2023-10-31T04:31:11.789Z,625.00
2023-10-31T04:31:44.393Z,622.00
2023-10-31T04:32:11.984Z,624.00
2023-10-31T04:32:42.019Z,624.00
2023-10-31T04:33:11.968Z,624.00
2023-10-31T04:33:41.990Z,624.00
2023-10-31T04:34:12.069Z,623.00
2023-10-31T04:34:42.164Z,624.00
2023-10-31T04:35:12.319Z,624.00
2023-10-31T04:35:42.225Z,624.00
2023-10-31T04:36:12.265Z,624.00
2023-10-31T04:36:42.285Z,624.00
2023-10-31T04:37:12.335Z,622.00
2023-10-31T04:37:42.466Z,620.00
2023-10-31T04:38:12.454Z,621.00
2023-10-31T04:38:42.470Z,620.00
2023-10-31T04:39:12.500Z,619.00
2023-10-31T04:39:42.534Z,620.00
2023-10-31T04:40:12.574Z,619.00
2023-10-31T04:40:42.619Z,619.00
2023-10-31T04:41:12.666Z,619.00
2023-10-31T04:41:42.721Z,621.00
2023-10-31T04:42:12.775Z,620.00
2023-10-31T04:42:42.804Z,746.00
2023-10-31T04:43:12.881Z,690.00
2023-10-31T04:43:43.000Z,668.00
2023-10-31T04:44:13.086Z,663.00
2023-10-31T04:44:43.110Z,659.00
2023-10-31T04:45:13.140Z,662.00
2023-10-31T04:45:43.169Z,663.00
2023-10-31T04:46:13.251Z,665.00
2023-10-31T04:46:43.422Z,667.00
2023-10-31T04:47:13.573Z,668.00
2023-10-31T04:47:43.611Z,669.00
2023-10-31T04:48:13.600Z,670.00
2023-10-31T04:48:43.569Z,671.00
2023-10-31T04:49:13.594Z,672.00
2023-10-31T04:49:43.642Z,676.00
2023-10-31T04:50:13.760Z,680.00
2023-10-31T04:50:43.696Z,683.00
2023-10-31T04:51:13.763Z,684.00
2023-10-31T04:51:43.779Z,687.00
2023-10-31T04:52:13.815Z,687.00
2023-10-31T04:52:43.871Z,690.00
2023-10-31T04:53:13.934Z,692.00
2023-10-31T04:53:43.958Z,695.00
2023-10-31T04:54:13.994Z,698.00
2023-10-31T04:54:44.021Z,697.00
2023-10-31T04:55:15.465Z,698.00
2023-10-31T04:55:44.065Z,697.00
2023-10-31T04:56:14.141Z,698.00
2023-10-31T04:56:44.183Z,699.00
2023-10-31T04:57:14.217Z,701.00
2023-10-31T04:57:44.239Z,702.00
2023-10-31T04:58:14.270Z,704.00
2023-10-31T04:58:44.341Z,706.00
2023-10-31T04:59:14.427Z,710.00
2023-10-31T04:59:44.454Z,711.00
2023-10-31T05:00:14.482Z,712.00
2023-10-31T05:00:44.528Z,713.00
2023-10-31T05:01:14.602Z,715.00
2023-10-31T05:01:44.642Z,718.00
2023-10-31T05:02:14.755Z,718.00
2023-10-31T05:02:44.822Z,720.00
2023-10-31T05:03:17.838Z,721.00
2023-10-31T05:03:45.036Z,720.00
2023-10-31T05:04:15.034Z,718.00
2023-10-31T05:04:45.249Z,717.00
2023-10-31T05:05:15.363Z,714.00
2023-10-31T05:05:45.360Z,713.00
2023-10-31T05:06:15.353Z,713.00
2023-10-31T05:06:45.354Z,714.00
2023-10-31T05:07:15.466Z,714.00
2023-10-31T05:07:45.606Z,713.00
2023-10-31T05:08:15.647Z,714.00
2023-10-31T05:08:45.653Z,715.00
2023-10-31T05:09:15.714Z,714.00
2023-10-31T05:09:47.239Z,714.00
2023-10-31T05:10:15.934Z,714.00
2023-10-31T05:10:45.938Z,713.00
2023-10-31T05:11:16.085Z,713.00
2023-10-31T05:11:46.103Z,713.00
2023-10-31T05:12:16.112Z,713.00
2023-10-31T05:12:46.211Z,714.00
2023-10-31T05:13:16.330Z,714.00
2023-10-31T05:13:46.341Z,715.00
2023-10-31T05:14:16.484Z,717.00
2023-10-31T05:14:46.478Z,715.00
2023-10-31T05:15:16.490Z,714.00
2023-10-31T05:15:46.568Z,712.00
2023-10-31T05:16:16.632Z,714.00
2023-10-31T05:16:46.679Z,704.00
2023-10-31T05:17:16.730Z,701.00
2023-10-31T05:17:46.796Z,701.00
2023-10-31T05:18:16.801Z,703.00
2023-10-31T05:18:46.830Z,707.00
2023-10-31T05:19:16.881Z,705.00
2023-10-31T05:19:46.930Z,707.00
2023-10-31T05:20:16.991Z,710.00
2023-10-31T05:20:47.036Z,715.00
2023-10-31T05:21:17.059Z,716.00
2023-10-31T05:21:47.095Z,714.00
2023-10-31T05:22:17.141Z,714.00
2023-10-31T05:22:47.196Z,712.00
2023-10-31T05:23:17.266Z,713.00
2023-10-31T05:23:47.323Z,714.00
2023-10-31T05:24:17.355Z,717.00
2023-10-31T05:24:47.380Z,718.00
2023-10-31T05:25:17.412Z,718.00
2023-10-31T05:25:47.455Z,718.00
2023-10-31T05:26:17.530Z,717.00
2023-10-31T05:26:47.584Z,717.00
2023-10-31T05:27:17.605Z,719.00
2023-10-31T05:27:47.635Z,719.00
2023-10-31T05:28:17.665Z,719.00
2023-10-31T05:28:47.744Z,718.00
2023-10-31T05:29:17.783Z,717.00
2023-10-31T05:29:47.821Z,716.00
2023-10-31T05:30:17.845Z,714.00
2023-10-31T05:30:47.864Z,717.00
2023-10-31T05:31:17.898Z,716.00
2023-10-31T05:31:47.949Z,715.00
2023-10-31T05:32:18.009Z,713.00
2023-10-31T05:32:48.041Z,710.00
2023-10-31T05:33:18.119Z,709.00
2023-10-31T05:33:48.183Z,708.00
2023-10-31T05:34:18.178Z,712.00
2023-10-31T05:34:48.259Z,710.00
2023-10-31T05:35:18.315Z,708.00
2023-10-31T05:35:48.360Z,706.00
2023-10-31T05:36:18.386Z,706.00
2023-10-31T05:36:48.411Z,705.00
2023-10-31T05:37:18.436Z,707.00
2023-10-31T05:37:48.514Z,711.00
2023-10-31T05:38:18.588Z,715.00
2023-10-31T05:38:48.635Z,719.00
2023-10-31T05:39:18.660Z,724.00
2023-10-31T05:39:48.693Z,728.00
2023-10-31T05:40:18.733Z,730.00
2023-10-31T05:40:48.768Z,729.00
2023-10-31T05:41:18.835Z,730.00
2023-10-31T05:41:48.902Z,731.00
2023-10-31T05:42:18.934Z,730.00
2023-10-31T05:42:48.976Z,730.00
2023-10-31T05:43:19.009Z,731.00
2023-10-31T05:43:49.062Z,734.00
2023-10-31T05:44:19.118Z,734.00
2023-10-31T05:44:49.163Z,735.00
2023-10-31T05:45:19.217Z,736.00
2023-10-31T05:45:49.292Z,735.00
2023-10-31T05:46:19.369Z,733.00
2023-10-31T05:46:49.468Z,733.00
2023-10-31T05:47:19.555Z,731.00
2023-10-31T05:47:49.638Z,732.00
2023-10-31T05:48:19.657Z,730.00
2023-10-31T05:48:49.689Z,729.00
2023-10-31T05:49:19.782Z,730.00
2023-10-31T05:49:49.828Z,730.00
2023-10-31T05:50:19.893Z,729.00
2023-10-31T05:50:49.947Z,726.00
2023-10-31T05:51:20.063Z,724.00
2023-10-31T05:51:50.044Z,727.00
2023-10-31T05:52:20.103Z,733.00
2023-10-31T05:52:50.143Z,733.00
2023-10-31T05:53:20.272Z,737.00
2023-10-31T05:53:50.174Z,738.00
2023-10-31T05:54:20.296Z,740.00
2023-10-31T05:54:50.206Z,744.00
2023-10-31T05:55:20.307Z,744.00
2023-10-31T05:55:50.373Z,745.00
2023-10-31T05:56:20.448Z,747.00
2023-10-31T05:56:50.503Z,749.00
2023-10-31T05:57:20.545Z,750.00
2023-10-31T05:57:50.568Z,751.00
2023-10-31T05:58:20.763Z,750.00
2023-10-31T05:58:50.713Z,750.00
2023-10-31T05:59:20.704Z,745.00
2023-10-31T05:59:50.734Z,747.00
2023-10-31T06:00:20.802Z,752.00
2023-10-31T06:00:50.831Z,755.00
2023-10-31T06:01:20.933Z,756.00
2023-10-31T06:01:50.987Z,756.00
2023-10-31T06:02:21.053Z,754.00
2023-10-31T06:02:51.146Z,754.00
2023-10-31T06:03:21.214Z,756.00
2023-10-31T06:03:51.265Z,757.00
2023-10-31T06:04:21.657Z,772.00
2023-10-31T06:04:51.373Z,793.00
2023-10-31T06:05:21.426Z,790.00
2023-10-31T06:05:51.416Z,790.00
2023-10-31T06:06:21.418Z,791.00
2023-10-31T06:07:21.493Z,788.00
2023-10-31T06:07:51.528Z,790.00
2023-10-31T06:08:21.553Z,791.00
2023-10-31T06:08:51.544Z,790.00
2023-10-31T06:09:21.597Z,790.00
2023-10-31T06:09:51.655Z,790.00
2023-10-31T06:10:21.774Z,789.00
2023-10-31T06:10:51.819Z,789.00
2023-10-31T06:11:21.859Z,789.00
2023-10-31T06:11:51.841Z,790.00
2023-10-31T06:12:21.949Z,791.00
2023-10-31T06:12:51.948Z,792.00
2023-10-31T06:13:22.068Z,793.00
2023-10-31T06:13:52.208Z,790.00
2023-10-31T06:14:22.273Z,793.00
2023-10-31T06:14:52.255Z,793.00
2023-10-31T06:15:22.430Z,794.00
2023-10-31T06:15:52.527Z,795.00
2023-10-31T06:16:22.475Z,795.00
2023-10-31T06:16:52.512Z,792.00
2023-10-31T06:17:22.572Z,789.00
2023-10-31T06:17:52.614Z,790.00
2023-10-31T06:18:22.637Z,790.00
2023-10-31T06:18:52.659Z,793.00
2023-10-31T06:19:22.710Z,794.00
2023-10-31T06:19:53.015Z,797.00
2023-10-31T06:20:22.828Z,797.00
2023-10-31T06:21:22.876Z,800.00
2023-10-31T06:21:52.901Z,800.00
2023-10-31T06:22:22.949Z,802.00
2023-10-31T06:22:53.002Z,800.00